Skip Navigation Links
NOAA logo - Click to go to the NOAA homepage
NOAA's National Weather Service
Alaska Aviation Weather Unit
  NWS logo - Click to go to the NWS homepage
Left Navbar Graphic     12 AKDT = 20 GMT

   
NOAA is celebrating 200 years of science, service, and stewardship. Visit the NOAA 200th celebration Web site to learn more.
USA.gov is the U.S. Government's official Web portal to all Federal, state and local government Web resources and services.
Facebook
NWS on Facebook

Important Change Regarding the AAWU Web Presence

 

Over the last several months, the AAWU has been working to navigate its webpages to a nationally supported server. Security, as well as other needs, have necessitated the change.  We have been given an extension for the site changeover while we diligently work at addressing feedback received. As of July 14, 2017, aawu.arh.noaa.gov will be discontinued. The new AAWU web address is weather.gov/aawu. It is now live and will run in-parallel with the old site until it is discontinued on July 14, 2017. Please continue to send any feedback or questions regarding the new webpages to nws.ar.aawu.webauthors@noaa.gov.  Thank you for your patience during this time of transition.
AAWU Home :: Display TAF Add Bookmark
SPECI PAFS 251401Z AUTO 00000KT 10SM OVC031 12/11 A2998 RMK AO2=

SPECI PAFS 251501Z AUTO 00000KT 10SM BKN024 OVC035 12/11 A2998 RMK
     AO2=

PAFS 251512Z AUTO 00000KT 10SM BKN024 OVC037 12/11 A2998=

PAFS 251526Z AUTO 00000KT 10SM SCT024 OVC039 12/11 A2998=

SPECI PAFS 251601Z AUTO 00000KT 10SM BKN025 OVC041 12/11 A2997 RMK
     AO2=

PAFS 251630Z AUTO 00000KT 10SM FEW019 BKN027 OVC038 13/11
     A2997=

METAR PAFS 251701Z AUTO 22004KT 10SM BKN015 BKN022 OVC040 13/11
     A2997=

PAFS 251801Z AUTO 21005KT 10SM SCT017 SCT023 BKN040 14/10 A2996=

PAFS 251830Z AUTO VRB03KT 10SM BKN019 OVC040 14/11 A2995=

METAR PAFS 251901Z AUTO 24004KT 10SM BKN019 BKN025 OVC041 14/11
     A2995=

METAR PAFS 252001Z AUTO 26006KT 10SM BKN022 OVC038 14/11 A2994=


NOAA's National Weather Service
Alaska Aviation Weather Unit
6930 Sand Lake Road
Anchorage, AK 99502-1845
Disclaimer
Credits
Glossary
Privacy Policy
About Us
Career Opportunities
Contact AAWU Internet Services Site last modified: April, 17th 2012